x

Columbia River Bar - 20nm West Of Columbia River Mouth (46029) Wave Buoy

9:50am - Sun 25th Jan 2015 All times are PST. -8 hours from GMT.

  • Sig Wave height 9.8ft
  • Swell Direction
  • Peak Period 13s
  • Average Period 10s
  • Wind
    9mph, 13mph gusts
  • Sea Temp 55°f
  • Air Temp 53°f
  • Sea Pressure 1019.6mb
  • Columbia River Bar - 20nm West Of Columbia River Mouth
  • Columbia River Bar - 20nm West Of Columbia River Mouth

More Historic Weather Station data

Upgrade to MSW Pro to gain access to the past 30 days of data for over 8000 Wavebouys and Weather Stations around the globe.

Join Pro

Comparision Forecast

View Surf forecast
   
Sun 01/25 9:50am 10ft 13s 10s 9 13 mph 1019.6mb 55f 53f
8:50am 8ft 14s 9s 11 13 mph 1019.8mb 55f 53f
7:50am 9ft 11s 9s 13 18 mph 1019.7mb 55f 52f
6:50am 8ft 13s 9s 13 18 mph 1020.3mb 55f 50f
5:50am 9ft 15s 10s 11 13 mph 1020.9mb 55f 50f
4:50am 9ft 15s 9s 9 11 mph 1021.1mb 55f 51f
3:50am 9ft 13s 9s 7 9 mph 1021.9mb 55f 52f
2:50am 9.5ft 13s 9s 4 7 mph 1022.6mb 55f 51f
1:50am 10ft 13s 10s 2 4 mph 1022.8mb 55f 52f
12:50am 10ft 14s 9s 4
mph
1023mb 55f 53f
Sat 01/24 11:50pm 9ft 14s 9s 4 7 mph 1023.4mb 55f 53f
10:50pm 11ft 15s 10s 7 9 mph 1023.2mb 55f 53f
9:50pm 10.5ft 14s 10s 9 11 mph 1023.1mb 55f 53f
8:50pm 10ft 14s 9s 7 9 mph 1023.5mb 55f 53f
7:50pm 11ft 14s 10s 4 7 mph 1024.2mb 55f 53f
6:50pm 10ft 15s 10s 2 7 mph 1024.6mb 55f 53f
5:50pm 10ft 15s 9s 9 11 mph 1023.6mb 55f 53f
4:50pm 10.5ft 15s 9s 9 11 mph 1024.1mb 55f 53f
3:50pm 10.5ft 15s 9s 11
mph
1024.1mb 55f 53f
2:50pm 10.5ft 13s 9s 11 16 mph 1024.3mb 55f 53f
1:50pm 11ft 13s 9s 13 16 mph 1024.7mb 55f 53f
12:50pm 12ft 15s 9s 13 16 mph 1025.2mb 55f 54f
11:50am 11ft 16s 9s 13 18 mph 1025.9mb 55f 54f
10:50am 11.5ft 16s 9s 16 18 mph 1025.9mb 55f 54f
9:50am 11.5ft 15s 9s 13 18 mph 1026.1mb 55f 54f
8:50am 11ft 13s 9s 16 18 mph 1025.7mb 55f 54f
7:50am 11ft 13s 9s 13 18 mph 1025.8mb 55f 54f
6:50am 11.5ft 15s 9s 13 16 mph 1026.2mb 55f 54f
5:50am 10.5ft 15s 8s 9 11 mph 1026.1mb 55f 54f
4:50am 11ft 16s 9s 11 13 mph 1026.7mb 55f 54f
3:50am 10.5ft 16s 8s 13 18 mph 1026.6mb 55f 54f
2:50am 11ft 16s 9s 13 18 mph 1026.6mb 55f 54f
1:50am 11ft 15s 8s 16 18 mph 1026.7mb 55f 54f
12:50am 12ft 16s 9s 16 18 mph 1026.7mb 55f 55f
Fri 01/23 11:50pm 12.5ft 16s 9s 18 20 mph 1027mb 55f 55f
10:50pm 11ft 17s 8s 20 25 mph 1026.5mb 55f 55f
9:50pm 11ft 11s 8s 20 25 mph 1026.7mb 55f 55f
8:50pm 11.5ft 16s 8s 22 25 mph 1026.6mb 55f 55f
7:50pm 11ft 16s 8s 25 29 mph 1026.6mb 55f 55f
6:50pm 11.5ft 17s 8s 22 27 mph 1026.5mb 55f 55f
5:50pm 11ft 17s 8s 20 25 mph 1026.9mb 55f 55f
4:50pm 11ft 12s 7s 22 27 mph 1026.3mb 55f 55f
3:50pm 10.5ft 11s 7s 22 27 mph 1026.5mb 55f 55f
2:50pm 10.5ft 17s 7s 22 29 mph 1026.4mb 55f 55f
1:50pm 11.5ft 17s 7s 25 29 mph 1025.8mb 55f 54f
12:50pm 11ft 17s 7s 25 29 mph 1026.6mb 55f 54f
11:50am 11ft 17s 7s 25 29 mph 1027.5mb 55f 54f
10:50am 11.5ft 19s 8s 25 29 mph 1027.7mb 55f 54f
9:50am 10ft 19s 7s 25 31 mph 1027.3mb 55f 54f
8:50am 10ft 12s 7s 25 31 mph 1027mb 55f 54f
7:50am 10.5ft 19s 8s 27 31 mph 1026.8mb 55f 54f
6:50am 9ft 19s 7s 25 29 mph 1026.9mb 55f 54f
5:50am 9ft 12s 7s 22 27 mph 1027.1mb 55f 54f
4:50am 8ft 12s 7s 22 27 mph 1027.1mb 55f 54f
3:50am 8.5ft 11s 7s 25 29 mph 1027.2mb 55f 53f
2:50am 7.5ft 11s 7s 22 27 mph 1027.2mb 55f 54f
1:50am 8ft 12s 7s 20 25 mph 1027.3mb 55f 54f
12:50am 8ft 11s 7s 18 20 mph 1028.1mb 55f 54f
Thu 01/22 11:50pm 9ft 11s 8s 20 25 mph 1027.6mb 55f 54f
10:50pm 9ft 12s 8s 18 22 mph 1027.7mb 55f 55f
9:50pm 8.5ft 11s 8s 20 27 mph 1026.9mb 55f 54f
8:50pm 9ft 12s 8s 18 20 mph 1026.7mb 55f 54f
7:50pm 8.5ft 12s 8s 20 22 mph 1026.6mb 55f 54f
6:50pm 8ft 11s 8s 18 20 mph 1026.8mb 55f 54f
5:50pm 8ft 12s 8s 16 18 mph 1026.3mb 55f 54f
4:50pm 8ft 13s 8s 16 18 mph 1026.6mb 55f 54f
3:50pm 7ft 11s 8s 16 18 mph 1025.7mb 55f 54f
2:50pm 8ft 12s 8s 16 20 mph 1025.8mb 55f 54f
1:50pm 7.5ft 12s 8s 18 20 mph 1025.7mb 55f 54f
12:50pm 6.5ft 12s 8s 16 20 mph 1025.3mb 55f 54f
11:50am 6.5ft 11s 7s 16 18 mph 1025.5mb 55f 53f
10:50am 6ft 11s 7s 11 13 mph 1025.7mb 55f 53f
9:50am 6ft 11s 7s 16 18 mph 1024.8mb 55f 53f
8:50am 5.5ft 10s 7s 16 18 mph 1024.4mb 55f 54f
7:50am 5.5ft 10s 7s 16 18 mph 1023.5mb 55f 53f
6:50am 5.5ft 11s 6s 16 18 mph 1023.2mb 55f 53f
5:50am 5ft 11s 6s 16 18 mph 1023.1mb 55f 53f
4:50am 4.5ft 10s 6s 18 20 mph 1023.2mb 55f 53f
3:50am 4.5ft 10s 7s 13 18 mph 1023.4mb 55f 53f
2:50am 5ft 10s 8s 11 16 mph 1023.4mb 55f 52f
1:50am 4.5ft 11s 8s 9 11 mph 1023.8mb 55f 53f
12:50am 5ft 11s 8s 9 11 mph 1023.5mb 55f 53f
Wed 01/21 11:50pm 5ft 11s 9s 9 11 mph 1023.4mb 55f 53f
10:50pm 5ft 11s 8s 9 13 mph 1023.1mb 55f 53f
9:50pm 5ft 12s 8s 2 4 mph 1023.6mb 55f 53f
8:50pm 5ft 11s 9s 7
mph
1023.5mb 55f 53f
7:50pm 5ft 11s 9s 2
mph
1023.3mb 55f 52f